sensor_id;sensor_type;location;lat;lon;timestamp;P1;durP1;ratioP1;P2;durP2;ratioP2
4903;SDS011;2467;48.142;11.616;2022-07-23T00:00:01;9.52;;;8.88;;
4903;SDS011;2467;48.142;11.616;2022-07-23T00:00:34;8.20;;;7.60;;
4903;SDS011;2467;48.142;11.616;2022-07-23T00:01:09;7.75;;;7.15;;
4903;SDS011;2467;48.142;11.616;2022-07-23T00:01:42;7.85;;;7.15;;
4903;SDS011;2467;48.142;11.616;2022-07-23T00:02:14;8.20;;;7.50;;
4903;SDS011;2467;48.142;11.616;2022-07-23T00:02:46;7.40;;;6.88;;
4903;SDS011;2467;48.142;11.616;2022-07-23T00:03:20;9.02;;;8.43;;
4903;SDS011;2467;48.142;11.616;2022-07-23T00:03:51;7.40;;;6.90;;
4903;SDS011;2467;48.142;11.616;2022-07-23T00:04:25;9.00;;;8.02;;
4903;SDS011;2467;48.142;11.616;2022-07-23T00:04:58;7.63;;;7.13;;
4903;SDS011;2467;48.142;11.616;2022-07-23T00:05:30;8.55;;;7.95;;
4903;SDS011;2467;48.142;11.616;2022-07-23T00:06:02;7.88;;;7.30;;
4903;SDS011;2467;48.142;11.616;2022-07-23T00:06:40;9.93;;;9.20;;
4903;SDS011;2467;48.142;11.616;2022-07-23T00:07:11;8.90;;;8.27;;
4903;SDS011;2467;48.142;11.616;2022-07-23T00:07:43;8.25;;;7.65;;
4903;SDS011;2467;48.142;11.616;2022-07-23T00:08:16;8.05;;;7.47;;
4903;SDS011;2467;48.142;11.616;2022-07-23T00:08:48;8.73;;;8.13;;
4903;SDS011;2467;48.142;11.616;2022-07-23T00:09:21;9.27;;;8.57;;
4903;SDS011;2467;48.142;11.616;2022-07-23T00:09:53;8.30;;;7.50;;
4903;SDS011;2467;48.142;11.616;2022-07-23T00:10:25;8.60;;;8.00;;
4903;SDS011;2467;48.142;11.616;2022-07-23T00:10:58;7.95;;;7.32;;
4903;SDS011;2467;48.142;11.616;2022-07-23T00:11:31;8.32;;;7.82;;
4903;SDS011;2467;48.142;11.616;2022-07-23T00:12:05;8.27;;;7.68;;
4903;SDS011;2467;48.142;11.616;2022-07-23T00:12:38;8.13;;;7.60;;
4903;SDS011;2467;48.142;11.616;2022-07-23T00:13:22;7.75;;;7.15;;
4903;SDS011;2467;48.142;11.616;2022-07-23T00:13:55;8.98;;;8.38;;
4903;SDS011;2467;48.142;11.616;2022-07-23T00:14:29;8.48;;;7.75;;
4903;SDS011;2467;48.142;11.616;2022-07-23T00:15:01;8.00;;;7.40;;
4903;SDS011;2467;48.142;11.616;2022-07-23T00:15:35;9.15;;;8.40;;
4903;SDS011;2467;48.142;11.616;2022-07-23T00:16:07;9.18;;;8.43;;
4903;SDS011;2467;48.142;11.616;2022-07-23T00:16:40;8.23;;;7.60;;
4903;SDS011;2467;48.142;11.616;2022-07-23T00:17:13;8.35;;;7.65;;
4903;SDS011;2467;48.142;11.616;2022-07-23T00:17:45;7.85;;;7.25;;
4903;SDS011;2467;48.142;11.616;2022-07-23T00:18:17;9.45;;;8.65;;
4903;SDS011;2467;48.142;11.616;2022-07-23T00:18:50;9.10;;;8.40;;
4903;SDS011;2467;48.142;11.616;2022-07-23T00:19:21;7.55;;;7.05;;
4903;SDS011;2467;48.142;11.616;2022-07-23T00:19:53;8.23;;;7.63;;
4903;SDS011;2467;48.142;11.616;2022-07-23T00:20:26;9.02;;;8.30;;
4903;SDS011;2467;48.142;11.616;2022-07-23T00:20:58;8.63;;;7.85;;
4903;SDS011;2467;48.142;11.616;2022-07-23T00:21:30;8.80;;;8.10;;
4903;SDS011;2467;48.142;11.616;2022-07-23T00:22:03;8.10;;;7.45;;
4903;SDS011;2467;48.142;11.616;2022-07-23T00:22:35;7.80;;;7.20;;
4903;SDS011;2467;48.142;11.616;2022-07-23T00:23:07;7.95;;;7.45;;
4903;SDS011;2467;48.142;11.616;2022-07-23T00:23:39;7.85;;;7.35;;
4903;SDS011;2467;48.142;11.616;2022-07-23T00:24:11;8.57;;;7.78;;
4903;SDS011;2467;48.142;11.616;2022-07-23T00:24:43;7.68;;;7.07;;
4903;SDS011;2467;48.142;11.616;2022-07-23T00:25:36;8.82;;;8.02;;
4903;SDS011;2467;48.142;11.616;2022-07-23T00:26:08;7.00;;;6.40;;
4903;SDS011;2467;48.142;11.616;2022-07-23T00:26:41;7.60;;;7.10;;
4903;SDS011;2467;48.142;11.616;2022-07-23T00:27:14;7.88;;;7.38;;
4903;SDS011;2467;48.142;11.616;2022-07-23T00:27:46;7.80;;;7.00;;
4903;SDS011;2467;48.142;11.616;2022-07-23T00:28:19;8.23;;;7.63;;
4903;SDS011;2467;48.142;11.616;2022-07-23T00:28:51;8.60;;;7.78;;
4903;SDS011;2467;48.142;11.616;2022-07-23T00:29:23;7.80;;;7.10;;
4903;SDS011;2467;48.142;11.616;2022-07-23T00:29:56;7.75;;;7.25;;
4903;SDS011;2467;48.142;11.616;2022-07-23T00:30:28;6.95;;;6.45;;
4903;SDS011;2467;48.142;11.616;2022-07-23T00:31:01;7.88;;;7.28;;
4903;SDS011;2467;48.142;11.616;2022-07-23T00:31:34;8.48;;;7.78;;
4903;SDS011;2467;48.142;11.616;2022-07-23T00:32:06;12.13;;;8.05;;
4903;SDS011;2467;48.142;11.616;2022-07-23T00:32:45;7.68;;;7.15;;
4903;SDS011;2467;48.142;11.616;2022-07-23T00:33:26;7.78;;;7.07;;
4903;SDS011;2467;48.142;11.616;2022-07-23T00:33:58;7.72;;;7.22;;
4903;SDS011;2467;48.142;11.616;2022-07-23T00:34:32;7.78;;;7.28;;
4903;SDS011;2467;48.142;11.616;2022-07-23T00:35:05;7.97;;;7.38;;
4903;SDS011;2467;48.142;11.616;2022-07-23T00:35:38;8.00;;;7.47;;
4903;SDS011;2467;48.142;11.616;2022-07-23T00:36:11;7.70;;;7.20;;
4903;SDS011;2467;48.142;11.616;2022-07-23T00:36:44;7.47;;;6.97;;
4903;SDS011;2467;48.142;11.616;2022-07-23T00:37:16;8.57;;;7.68;;
4903;SDS011;2467;48.142;11.616;2022-07-23T00:37:48;8.45;;;7.13;;
4903;SDS011;2467;48.142;11.616;2022-07-23T00:38:21;7.95;;;7.35;;
4903;SDS011;2467;48.142;11.616;2022-07-23T00:38:53;7.57;;;7.07;;
4903;SDS011;2467;48.142;11.616;2022-07-23T00:39:25;8.10;;;7.60;;
4903;SDS011;2467;48.142;11.616;2022-07-23T00:39:58;6.70;;;6.20;;
4903;SDS011;2467;48.142;11.616;2022-07-23T00:40:30;7.13;;;6.63;;
4903;SDS011;2467;48.142;11.616;2022-07-23T00:41:02;8.43;;;7.20;;
4903;SDS011;2467;48.142;11.616;2022-07-23T00:41:35;7.13;;;6.63;;
4903;SDS011;2467;48.142;11.616;2022-07-23T00:42:07;7.57;;;6.97;;
4903;SDS011;2467;48.142;11.616;2022-07-23T00:42:40;7.38;;;6.78;;
4903;SDS011;2467;48.142;11.616;2022-07-23T00:43:12;7.72;;;7.03;;
4903;SDS011;2467;48.142;11.616;2022-07-23T00:43:45;8.00;;;7.40;;
4903;SDS011;2467;48.142;11.616;2022-07-23T00:44:17;8.73;;;8.13;;
4903;SDS011;2467;48.142;11.616;2022-07-23T00:44:50;6.78;;;6.38;;
4903;SDS011;2467;48.142;11.616;2022-07-23T00:45:23;7.70;;;7.20;;
4903;SDS011;2467;48.142;11.616;2022-07-23T00:45:55;8.50;;;7.90;;
4903;SDS011;2467;48.142;11.616;2022-07-23T00:46:27;6.95;;;6.45;;
4903;SDS011;2467;48.142;11.616;2022-07-23T00:47:00;7.47;;;6.88;;
4903;SDS011;2467;48.142;11.616;2022-07-23T00:47:32;7.45;;;6.85;;
4903;SDS011;2467;48.142;11.616;2022-07-23T00:48:05;7.22;;;6.72;;
4903;SDS011;2467;48.142;11.616;2022-07-23T00:48:38;8.98;;;8.10;;
4903;SDS011;2467;48.142;11.616;2022-07-23T00:49:10;7.57;;;6.93;;
4903;SDS011;2467;48.142;11.616;2022-07-23T00:49:42;7.28;;;6.50;;
4903;SDS011;2467;48.142;11.616;2022-07-23T00:50:14;6.63;;;6.10;;
4903;SDS011;2467;48.142;11.616;2022-07-23T00:50:46;7.57;;;7.07;;
4903;SDS011;2467;48.142;11.616;2022-07-23T00:51:18;7.95;;;7.35;;
4903;SDS011;2467;48.142;11.616;2022-07-23T00:51:51;7.22;;;6.75;;
4903;SDS011;2467;48.142;11.616;2022-07-23T00:52:24;7.68;;;7.07;;
4903;SDS011;2467;48.142;11.616;2022-07-23T00:52:57;6.78;;;6.28;;
4903;SDS011;2467;48.142;11.616;2022-07-23T00:53:29;7.13;;;6.63;;
4903;SDS011;2467;48.142;11.616;2022-07-23T00:54:02;7.65;;;6.90;;
4903;SDS011;2467;48.142;11.616;2022-07-23T00:54:35;7.80;;;7.18;;
4903;SDS011;2467;48.142;11.616;2022-07-23T00:55:08;7.47;;;6.97;;
4903;SDS011;2467;48.142;11.616;2022-07-23T00:55:41;7.40;;;6.82;;
4903;SDS011;2467;48.142;11.616;2022-07-23T00:56:14;7.50;;;6.80;;
4903;SDS011;2467;48.142;11.616;2022-07-23T00:56:46;7.50;;;7.00;;
4903;SDS011;2467;48.142;11.616;2022-07-23T00:57:18;7.93;;;7.43;;
4903;SDS011;2467;48.142;11.616;2022-07-23T00:58:00;8.05;;;7.40;;
4903;SDS011;2467;48.142;11.616;2022-07-23T00:58:33;8.63;;;7.95;;
4903;SDS011;2467;48.142;11.616;2022-07-23T00:59:08;7.47;;;6.88;;
4903;SDS011;2467;48.142;11.616;2022-07-23T00:59:40;8.10;;;7.40;;
4903;SDS011;2467;48.142;11.616;2022-07-23T01:00:12;8.20;;;7.60;;
4903;SDS011;2467;48.142;11.616;2022-07-23T01:00:46;8.20;;;7.60;;
4903;SDS011;2467;48.142;11.616;2022-07-23T01:01:18;8.63;;;8.02;;
4903;SDS011;2467;48.142;11.616;2022-07-23T01:01:50;9.65;;;8.75;;
4903;SDS011;2467;48.142;11.616;2022-07-23T01:02:23;8.70;;;8.00;;
4903;SDS011;2467;48.142;11.616;2022-07-23T01:02:55;8.48;;;7.78;;
4903;SDS011;2467;48.142;11.616;2022-07-23T01:03:27;7.82;;;7.28;;
4903;SDS011;2467;48.142;11.616;2022-07-23T01:04:01;7.90;;;7.32;;
4903;SDS011;2467;48.142;11.616;2022-07-23T01:04:36;8.35;;;7.75;;
4903;SDS011;2467;48.142;11.616;2022-07-23T01:05:08;8.05;;;7.35;;
4903;SDS011;2467;48.142;11.616;2022-07-23T01:05:42;8.70;;;8.10;;
4903;SDS011;2467;48.142;11.616;2022-07-23T01:06:14;7.93;;;7.32;;
4903;SDS011;2467;48.142;11.616;2022-07-23T01:06:46;8.20;;;7.50;;
4903;SDS011;2467;48.142;11.616;2022-07-23T01:07:19;8.60;;;8.10;;
4903;SDS011;2467;48.142;11.616;2022-07-23T01:07:51;8.23;;;7.53;;
4903;SDS011;2467;48.142;11.616;2022-07-23T01:08:26;8.98;;;8.23;;
4903;SDS011;2467;48.142;11.616;2022-07-23T01:08:59;8.85;;;8.05;;
4903;SDS011;2467;48.142;11.616;2022-07-23T01:09:32;7.72;;;7.22;;
4903;SDS011;2467;48.142;11.616;2022-07-23T01:10:04;7.10;;;6.43;;
4903;SDS011;2467;48.142;11.616;2022-07-23T01:11:00;8.10;;;7.40;;
4903;SDS011;2467;48.142;11.616;2022-07-23T01:11:32;8.90;;;8.25;;
4903;SDS011;2467;48.142;11.616;2022-07-23T01:12:05;8.05;;;7.15;;
4903;SDS011;2467;48.142;11.616;2022-07-23T01:12:39;7.50;;;6.90;;
4903;SDS011;2467;48.142;11.616;2022-07-23T01:13:12;8.50;;;7.90;;
4903;SDS011;2467;48.142;11.616;2022-07-23T01:13:44;7.70;;;7.10;;
4903;SDS011;2467;48.142;11.616;2022-07-23T01:14:18;8.02;;;7.35;;
4903;SDS011;2467;48.142;11.616;2022-07-23T01:14:53;8.38;;;7.45;;
4903;SDS011;2467;48.142;11.616;2022-07-23T01:15:26;8.00;;;7.30;;
4903;SDS011;2467;48.142;11.616;2022-07-23T01:15:59;8.45;;;7.85;;
4903;SDS011;2467;48.142;11.616;2022-07-23T01:16:31;8.25;;;7.55;;
4903;SDS011;2467;48.142;11.616;2022-07-23T01:17:03;8.30;;;7.68;;
4903;SDS011;2467;48.142;11.616;2022-07-23T01:17:36;8.55;;;7.68;;
4903;SDS011;2467;48.142;11.616;2022-07-23T01:18:08;7.93;;;7.32;;
4903;SDS011;2467;48.142;11.616;2022-07-23T01:18:40;8.43;;;7.82;;
4903;SDS011;2467;48.142;11.616;2022-07-23T01:19:14;7.55;;;6.95;;
4903;SDS011;2467;48.142;11.616;2022-07-23T01:19:47;8.80;;;8.13;;
4903;SDS011;2467;48.142;11.616;2022-07-23T01:20:19;7.93;;;7.32;;
4903;SDS011;2467;48.142;11.616;2022-07-23T01:20:52;9.15;;;8.38;;
4903;SDS011;2467;48.142;11.616;2022-07-23T01:21:24;10.02;;;9.30;;
4903;SDS011;2467;48.142;11.616;2022-07-23T01:21:56;9.70;;;8.80;;
4903;SDS011;2467;48.142;11.616;2022-07-23T01:22:31;9.52;;;8.73;;
4903;SDS011;2467;48.142;11.616;2022-07-23T01:23:03;10.18;;;9.10;;
4903;SDS011;2467;48.142;11.616;2022-07-23T01:23:35;10.63;;;9.82;;
4903;SDS011;2467;48.142;11.616;2022-07-23T01:24:08;9.45;;;8.73;;
4903;SDS011;2467;48.142;11.616;2022-07-23T01:24:41;10.52;;;9.73;;
4903;SDS011;2467;48.142;11.616;2022-07-23T01:25:13;11.30;;;10.20;;
4903;SDS011;2467;48.142;11.616;2022-07-23T01:25:52;10.30;;;9.50;;
4903;SDS011;2467;48.142;11.616;2022-07-23T01:26:24;10.52;;;9.57;;
4903;SDS011;2467;48.142;11.616;2022-07-23T01:26:56;10.90;;;9.93;;
4903;SDS011;2467;48.142;11.616;2022-07-23T01:27:29;9.63;;;8.93;;
4903;SDS011;2467;48.142;11.616;2022-07-23T01:28:01;10.40;;;9.70;;
4903;SDS011;2467;48.142;11.616;2022-07-23T01:28:33;11.45;;;9.70;;
4903;SDS011;2467;48.142;11.616;2022-07-23T01:29:06;10.70;;;9.70;;
4903;SDS011;2467;48.142;11.616;2022-07-23T01:29:38;11.00;;;10.10;;
4903;SDS011;2467;48.142;11.616;2022-07-23T01:30:11;11.48;;;10.05;;
4903;SDS011;2467;48.142;11.616;2022-07-23T01:30:44;10.20;;;9.50;;
4903;SDS011;2467;48.142;11.616;2022-07-23T01:31:17;9.77;;;8.77;;
4903;SDS011;2467;48.142;11.616;2022-07-23T01:31:59;10.40;;;9.32;;
4903;SDS011;2467;48.142;11.616;2022-07-23T01:32:31;11.15;;;9.10;;
4903;SDS011;2467;48.142;11.616;2022-07-23T01:33:04;9.45;;;8.75;;
4903;SDS011;2467;48.142;11.616;2022-07-23T01:33:37;10.02;;;9.13;;
4903;SDS011;2467;48.142;11.616;2022-07-23T01:34:09;9.88;;;8.93;;
4903;SDS011;2467;48.142;11.616;2022-07-23T01:34:42;9.25;;;8.35;;
4903;SDS011;2467;48.142;11.616;2022-07-23T01:35:14;18.92;;;8.50;;
4903;SDS011;2467;48.142;11.616;2022-07-23T01:35:46;9.68;;;8.70;;
4903;SDS011;2467;48.142;11.616;2022-07-23T01:36:19;10.70;;;9.27;;
4903;SDS011;2467;48.142;11.616;2022-07-23T01:36:51;9.65;;;8.75;;
4903;SDS011;2467;48.142;11.616;2022-07-23T01:37:23;16.77;;;10.65;;
4903;SDS011;2467;48.142;11.616;2022-07-23T01:37:57;9.00;;;8.30;;
4903;SDS011;2467;48.142;11.616;2022-07-23T01:38:29;10.23;;;8.50;;
4903;SDS011;2467;48.142;11.616;2022-07-23T01:39:01;8.60;;;7.80;;
4903;SDS011;2467;48.142;11.616;2022-07-23T01:39:36;13.27;;;8.05;;
4903;SDS011;2467;48.142;11.616;2022-07-23T01:40:08;9.48;;;8.60;;
4903;SDS011;2467;48.142;11.616;2022-07-23T01:40:41;10.65;;;7.22;;
4903;SDS011;2467;48.142;11.616;2022-07-23T01:41:15;8.25;;;7.45;;
4903;SDS011;2467;48.142;11.616;2022-07-23T01:41:47;8.93;;;6.50;;
4903;SDS011;2467;48.142;11.616;2022-07-23T01:42:21;11.60;;;7.03;;
4903;SDS011;2467;48.142;11.616;2022-07-23T01:43:13;8.32;;;5.53;;
4903;SDS011;2467;48.142;11.616;2022-07-23T01:43:46;9.68;;;6.35;;
4903;SDS011;2467;48.142;11.616;2022-07-23T01:44:19;11.75;;;6.45;;
4903;SDS011;2467;48.142;11.616;2022-07-23T01:44:51;7.47;;;6.97;;
4903;SDS011;2467;48.142;11.616;2022-07-23T01:45:22;13.38;;;7.32;;
4903;SDS011;2467;48.142;11.616;2022-07-23T01:45:54;14.77;;;6.35;;
4903;SDS011;2467;48.142;11.616;2022-07-23T01:46:27;6.00;;;5.38;;
4903;SDS011;2467;48.142;11.616;2022-07-23T01:46:59;6.90;;;5.43;;
4903;SDS011;2467;48.142;11.616;2022-07-23T01:47:31;6.22;;;4.53;;
4903;SDS011;2467;48.142;11.616;2022-07-23T01:48:04;10.30;;;5.30;;
4903;SDS011;2467;48.142;11.616;2022-07-23T01:48:41;5.93;;;5.22;;
4903;SDS011;2467;48.142;11.616;2022-07-23T01:49:13;5.38;;;4.65;;
4903;SDS011;2467;48.142;11.616;2022-07-23T01:49:45;6.32;;;5.78;;
4903;SDS011;2467;48.142;11.616;2022-07-23T01:50:18;6.05;;;5.13;;
4903;SDS011;2467;48.142;11.616;2022-07-23T01:50:50;6.07;;;5.68;;
4903;SDS011;2467;48.142;11.616;2022-07-23T01:51:22;5.15;;;4.75;;
4903;SDS011;2467;48.142;11.616;2022-07-23T01:51:55;5.50;;;5.00;;
4903;SDS011;2467;48.142;11.616;2022-07-23T01:52:32;5.40;;;5.00;;
4903;SDS011;2467;48.142;11.616;2022-07-23T01:53:06;4.57;;;4.28;;
4903;SDS011;2467;48.142;11.616;2022-07-23T01:53:39;5.78;;;5.28;;
4903;SDS011;2467;48.142;11.616;2022-07-23T01:54:10;5.82;;;5.43;;
4903;SDS011;2467;48.142;11.616;2022-07-23T01:54:42;8.23;;;5.43;;
4903;SDS011;2467;48.142;11.616;2022-07-23T01:55:14;5.53;;;5.00;;
4903;SDS011;2467;48.142;11.616;2022-07-23T01:55:49;6.75;;;6.15;;
4903;SDS011;2467;48.142;11.616;2022-07-23T01:56:21;6.38;;;5.88;;
4903;SDS011;2467;48.142;11.616;2022-07-23T01:56:53;5.53;;;5.03;;
4903;SDS011;2467;48.142;11.616;2022-07-23T01:57:26;6.43;;;5.93;;
4903;SDS011;2467;48.142;11.616;2022-07-23T01:57:58;5.53;;;5.13;;
4903;SDS011;2467;48.142;11.616;2022-07-23T01:58:30;5.78;;;5.35;;
4903;SDS011;2467;48.142;11.616;2022-07-23T01:59:03;5.15;;;4.70;;
4903;SDS011;2467;48.142;11.616;2022-07-23T01:59:35;5.95;;;5.35;;
4903;SDS011;2467;48.142;11.616;2022-07-23T02:00:08;6.45;;;5.85;;
4903;SDS011;2467;48.142;11.616;2022-07-23T02:00:41;5.40;;;4.97;;
4903;SDS011;2467;48.142;11.616;2022-07-23T02:01:13;6.20;;;5.70;;
4903;SDS011;2467;48.142;11.616;2022-07-23T02:01:45;6.78;;;6.20;;
4903;SDS011;2467;48.142;11.616;2022-07-23T02:02:18;5.63;;;5.22;;
4903;SDS011;2467;48.142;11.616;2022-07-23T02:02:50;6.00;;;5.60;;
4903;SDS011;2467;48.142;11.616;2022-07-23T02:03:22;6.15;;;5.60;;
4903;SDS011;2467;48.142;11.616;2022-07-23T02:03:55;6.15;;;5.57;;
4903;SDS011;2467;48.142;11.616;2022-07-23T02:04:27;6.47;;;5.88;;
4903;SDS011;2467;48.142;11.616;2022-07-23T02:04:59;6.80;;;6.30;;
4903;SDS011;2467;48.142;11.616;2022-07-23T02:05:32;6.03;;;5.50;;
4903;SDS011;2467;48.142;11.616;2022-07-23T02:06:04;6.20;;;5.70;;
4903;SDS011;2467;48.142;11.616;2022-07-23T02:06:37;7.53;;;6.85;;
4903;SDS011;2467;48.142;11.616;2022-07-23T02:07:09;5.40;;;5.00;;
4903;SDS011;2467;48.142;11.616;2022-07-23T02:07:41;6.43;;;5.90;;
4903;SDS011;2467;48.142;11.616;2022-07-23T02:08:15;6.30;;;5.70;;
4903;SDS011;2467;48.142;11.616;2022-07-23T02:08:47;5.75;;;5.35;;
4903;SDS011;2467;48.142;11.616;2022-07-23T02:09:19;5.50;;;5.00;;
4903;SDS011;2467;48.142;11.616;2022-07-23T02:09:51;6.20;;;5.70;;
4903;SDS011;2467;48.142;11.616;2022-07-23T02:10:24;6.22;;;5.72;;
4903;SDS011;2467;48.142;11.616;2022-07-23T02:10:56;7.70;;;5.95;;
4903;SDS011;2467;48.142;11.616;2022-07-23T02:11:27;6.15;;;5.75;;
4903;SDS011;2467;48.142;11.616;2022-07-23T02:11:59;6.75;;;6.25;;
4903;SDS011;2467;48.142;11.616;2022-07-23T02:12:34;7.80;;;7.03;;
4903;SDS011;2467;48.142;11.616;2022-07-23T02:13:06;6.25;;;5.75;;
4903;SDS011;2467;48.142;11.616;2022-07-23T02:13:39;6.57;;;6.07;;
4903;SDS011;2467;48.142;11.616;2022-07-23T02:14:11;6.32;;;5.82;;
4903;SDS011;2467;48.142;11.616;2022-07-23T02:14:43;9.23;;;6.32;;
4903;SDS011;2467;48.142;11.616;2022-07-23T02:15:16;6.43;;;5.93;;
4903;SDS011;2467;48.142;11.616;2022-07-23T02:15:48;7.68;;;7.07;;
4903;SDS011;2467;48.142;11.616;2022-07-23T02:16:20;7.25;;;6.50;;
4903;SDS011;2467;48.142;11.616;2022-07-23T02:16:53;7.22;;;6.53;;
4903;SDS011;2467;48.142;11.616;2022-07-23T02:17:58;6.90;;;6.30;;
4903;SDS011;2467;48.142;11.616;2022-07-23T02:18:31;6.93;;;6.30;;
4903;SDS011;2467;48.142;11.616;2022-07-23T02:19:03;6.93;;;6.30;;
4903;SDS011;2467;48.142;11.616;2022-07-23T02:19:35;6.45;;;5.55;;
4903;SDS011;2467;48.142;11.616;2022-07-23T02:20:08;6.30;;;5.85;;
4903;SDS011;2467;48.142;11.616;2022-07-23T02:20:41;6.80;;;6.15;;
4903;SDS011;2467;48.142;11.616;2022-07-23T02:21:13;7.15;;;6.60;;
4903;SDS011;2467;48.142;11.616;2022-07-23T02:21:46;6.82;;;6.28;;
4903;SDS011;2467;48.142;11.616;2022-07-23T02:22:18;6.07;;;5.57;;
4903;SDS011;2467;48.142;11.616;2022-07-23T02:22:50;6.45;;;6.05;;
4903;SDS011;2467;48.142;11.616;2022-07-23T02:23:24;6.60;;;6.07;;
4903;SDS011;2467;48.142;11.616;2022-07-23T02:23:56;5.18;;;4.78;;
4903;SDS011;2467;48.142;11.616;2022-07-23T02:24:28;6.05;;;5.53;;
4903;SDS011;2467;48.142;11.616;2022-07-23T02:25:01;5.68;;;5.28;;
4903;SDS011;2467;48.142;11.616;2022-07-23T02:25:33;6.60;;;6.00;;
4903;SDS011;2467;48.142;11.616;2022-07-23T02:26:05;5.50;;;5.10;;
4903;SDS011;2467;48.142;11.616;2022-07-23T02:26:38;6.65;;;5.10;;
4903;SDS011;2467;48.142;11.616;2022-07-23T02:27:22;5.00;;;4.53;;
4903;SDS011;2467;48.142;11.616;2022-07-23T02:27:54;6.80;;;6.13;;
4903;SDS011;2467;48.142;11.616;2022-07-23T02:28:27;5.20;;;4.78;;
4903;SDS011;2467;48.142;11.616;2022-07-23T02:28:59;5.05;;;4.55;;
4903;SDS011;2467;48.142;11.616;2022-07-23T02:29:31;5.40;;;5.03;;
4903;SDS011;2467;48.142;11.616;2022-07-23T02:30:05;4.68;;;4.28;;
4903;SDS011;2467;48.142;11.616;2022-07-23T02:30:37;4.68;;;4.28;;
4903;SDS011;2467;48.142;11.616;2022-07-23T02:31:10;5.20;;;4.65;;
4903;SDS011;2467;48.142;11.616;2022-07-23T02:31:43;4.72;;;4.43;;
4903;SDS011;2467;48.142;11.616;2022-07-23T02:32:15;5.10;;;4.70;;
4903;SDS011;2467;48.142;11.616;2022-07-23T02:32:47;5.03;;;4.72;;
4903;SDS011;2467;48.142;11.616;2022-07-23T02:33:20;3.92;;;3.72;;
4903;SDS011;2467;48.142;11.616;2022-07-23T02:33:52;4.55;;;4.25;;
4903;SDS011;2467;48.142;11.616;2022-07-23T02:34:23;5.72;;;5.30;;
4903;SDS011;2467;48.142;11.616;2022-07-23T02:34:56;5.30;;;4.90;;
4903;SDS011;2467;48.142;11.616;2022-07-23T02:35:28;5.20;;;4.82;;
4903;SDS011;2467;48.142;11.616;2022-07-23T02:36:00;5.32;;;4.93;;
4903;SDS011;2467;48.142;11.616;2022-07-23T02:36:33;5.40;;;4.90;;
4903;SDS011;2467;48.142;11.616;2022-07-23T02:37:05;5.45;;;4.95;;
4903;SDS011;2467;48.142;11.616;2022-07-23T02:37:37;6.28;;;4.88;;
4903;SDS011;2467;48.142;11.616;2022-07-23T02:38:10;5.90;;;4.57;;
4903;SDS011;2467;48.142;11.616;2022-07-23T02:38:43;7.25;;;4.90;;
4903;SDS011;2467;48.142;11.616;2022-07-23T02:39:15;4.97;;;4.57;;
4903;SDS011;2467;48.142;11.616;2022-07-23T02:39:48;4.10;;;3.80;;
4903;SDS011;2467;48.142;11.616;2022-07-23T02:40:19;5.30;;;4.40;;
4903;SDS011;2467;48.142;11.616;2022-07-23T02:40:51;4.85;;;4.45;;
4903;SDS011;2467;48.142;11.616;2022-07-23T02:41:24;3.83;;;3.53;;
4903;SDS011;2467;48.142;11.616;2022-07-23T02:41:56;4.20;;;3.90;;
4903;SDS011;2467;48.142;11.616;2022-07-23T02:42:28;4.00;;;3.63;;
4903;SDS011;2467;48.142;11.616;2022-07-23T02:43:00;4.05;;;3.65;;
4903;SDS011;2467;48.142;11.616;2022-07-23T02:43:33;4.18;;;3.78;;
4903;SDS011;2467;48.142;11.616;2022-07-23T02:44:05;3.70;;;3.50;;
4903;SDS011;2467;48.142;11.616;2022-07-23T02:44:37;4.32;;;4.00;;
4903;SDS011;2467;48.142;11.616;2022-07-23T02:45:10;4.35;;;4.05;;
4903;SDS011;2467;48.142;11.616;2022-07-23T02:45:42;3.35;;;3.15;;
4903;SDS011;2467;48.142;11.616;2022-07-23T02:46:14;5.90;;;5.03;;
4903;SDS011;2467;48.142;11.616;2022-07-23T02:46:47;4.35;;;4.05;;
4903;SDS011;2467;48.142;11.616;2022-07-23T02:47:18;5.30;;;4.60;;
4903;SDS011;2467;48.142;11.616;2022-07-23T02:47:50;4.30;;;4.00;;
4903;SDS011;2467;48.142;11.616;2022-07-23T02:48:23;4.40;;;4.00;;
4903;SDS011;2467;48.142;11.616;2022-07-23T02:48:55;5.20;;;3.78;;
4903;SDS011;2467;48.142;11.616;2022-07-23T02:49:27;6.18;;;3.80;;
4903;SDS011;2467;48.142;11.616;2022-07-23T02:50:00;4.35;;;4.05;;
4903;SDS011;2467;48.142;11.616;2022-07-23T02:50:32;4.65;;;4.22;;
4903;SDS011;2467;48.142;11.616;2022-07-23T02:51:04;3.63;;;3.38;;
4903;SDS011;2467;48.142;11.616;2022-07-23T02:51:45;4.15;;;3.75;;
4903;SDS011;2467;48.142;11.616;2022-07-23T02:52:16;4.25;;;3.85;;
4903;SDS011;2467;48.142;11.616;2022-07-23T02:52:48;3.60;;;3.40;;
4903;SDS011;2467;48.142;11.616;2022-07-23T02:53:21;4.22;;;3.83;;
4903;SDS011;2467;48.142;11.616;2022-07-23T02:53:55;5.00;;;4.63;;
4903;SDS011;2467;48.142;11.616;2022-07-23T02:54:26;4.53;;;4.13;;
4903;SDS011;2467;48.142;11.616;2022-07-23T02:54:59;4.55;;;4.15;;
4903;SDS011;2467;48.142;11.616;2022-07-23T02:55:31;4.35;;;3.95;;
4903;SDS011;2467;48.142;11.616;2022-07-23T02:56:03;4.60;;;4.25;;
4903;SDS011;2467;48.142;11.616;2022-07-23T02:56:35;3.90;;;3.70;;
4903;SDS011;2467;48.142;11.616;2022-07-23T02:57:08;4.13;;;3.80;;
4903;SDS011;2467;48.142;11.616;2022-07-23T02:57:40;3.35;;;3.15;;
4903;SDS011;2467;48.142;11.616;2022-07-23T02:58:12;4.10;;;3.80;;
4903;SDS011;2467;48.142;11.616;2022-07-23T02:58:44;4.50;;;4.10;;
4903;SDS011;2467;48.142;11.616;2022-07-23T02:59:17;4.20;;;3.80;;
4903;SDS011;2467;48.142;11.616;2022-07-23T02:59:49;4.65;;;4.25;;
4903;SDS011;2467;48.142;11.616;2022-07-23T03:00:21;4.20;;;3.80;;
4903;SDS011;2467;48.142;11.616;2022-07-23T03:00:54;4.20;;;3.85;;
4903;SDS011;2467;48.142;11.616;2022-07-23T03:01:26;3.72;;;3.53;;
4903;SDS011;2467;48.142;11.616;2022-07-23T03:01:57;4.70;;;4.40;;
4903;SDS011;2467;48.142;11.616;2022-07-23T03:02:30;3.95;;;3.65;;
4903;SDS011;2467;48.142;11.616;2022-07-23T03:03:03;6.00;;;4.28;;
4903;SDS011;2467;48.142;11.616;2022-07-23T03:03:35;4.13;;;3.70;;
4903;SDS011;2467;48.142;11.616;2022-07-23T03:04:08;4.50;;;4.20;;
4903;SDS011;2467;48.142;11.616;2022-07-23T03:04:40;4.32;;;4.03;;
4903;SDS011;2467;48.142;11.616;2022-07-23T03:05:13;4.65;;;4.28;;
4903;SDS011;2467;48.142;11.616;2022-07-23T03:05:46;5.25;;;4.85;;
4903;SDS011;2467;48.142;11.616;2022-07-23T03:06:19;4.60;;;4.10;;
4903;SDS011;2467;48.142;11.616;2022-07-23T03:06:51;6.38;;;3.65;;
4903;SDS011;2467;48.142;11.616;2022-07-23T03:07:23;4.07;;;3.83;;
4903;SDS011;2467;48.142;11.616;2022-07-23T03:07:56;4.25;;;3.95;;
4903;SDS011;2467;48.142;11.616;2022-07-23T03:08:28;4.90;;;4.50;;
4903;SDS011;2467;48.142;11.616;2022-07-23T03:09:01;5.85;;;5.07;;
4903;SDS011;2467;48.142;11.616;2022-07-23T03:09:35;3.97;;;3.67;;
4903;SDS011;2467;48.142;11.616;2022-07-23T03:10:07;4.60;;;4.10;;
4903;SDS011;2467;48.142;11.616;2022-07-23T03:10:40;4.93;;;4.53;;
4903;SDS011;2467;48.142;11.616;2022-07-23T03:11:12;4.15;;;3.70;;
4903;SDS011;2467;48.142;11.616;2022-07-23T03:11:47;3.92;;;3.63;;
4903;SDS011;2467;48.142;11.616;2022-07-23T03:12:19;3.78;;;3.47;;
4903;SDS011;2467;48.142;11.616;2022-07-23T03:12:52;3.70;;;3.40;;
4903;SDS011;2467;48.142;11.616;2022-07-23T03:13:24;4.20;;;3.90;;
4903;SDS011;2467;48.142;11.616;2022-07-23T03:13:57;4.03;;;3.63;;
4903;SDS011;2467;48.142;11.616;2022-07-23T03:14:28;4.13;;;3.72;;
4903;SDS011;2467;48.142;11.616;2022-07-23T03:15:00;4.55;;;4.22;;
4903;SDS011;2467;48.142;11.616;2022-07-23T03:15:33;4.30;;;4.00;;
4903;SDS011;2467;48.142;11.616;2022-07-23T03:16:05;4.90;;;4.40;;
4903;SDS011;2467;48.142;11.616;2022-07-23T03:16:38;4.15;;;3.85;;
4903;SDS011;2467;48.142;11.616;2022-07-23T03:17:11;4.07;;;3.67;;
4903;SDS011;2467;48.142;11.616;2022-07-23T03:17:43;4.28;;;3.75;;
4903;SDS011;2467;48.142;11.616;2022-07-23T03:18:15;4.40;;;4.03;;
4903;SDS011;2467;48.142;11.616;2022-07-23T03:18:48;5.63;;;4.97;;
4903;SDS011;2467;48.142;11.616;2022-07-23T03:19:20;4.70;;;4.40;;
4903;SDS011;2467;48.142;11.616;2022-07-23T03:19:52;5.00;;;4.40;;
4903;SDS011;2467;48.142;11.616;2022-07-23T03:20:24;4.80;;;4.40;;
4903;SDS011;2467;48.142;11.616;2022-07-23T03:20:56;4.65;;;4.25;;
4903;SDS011;2467;48.142;11.616;2022-07-23T03:21:28;6.15;;;5.65;;